Dades meteomassalio
Diari Summary for Marc 27, 2017 Units:  Metric    English   Both
« Previous Day
Next Day »
Diari Semanal Mensual Anual Personalitzat
  Maxima: Minima: Mijana:
Temperatura: -17.8 °C -13.1 °C -11.6 °C
Rosada: -17.8 °C -14.1 °C -13.2 °C
Humitat: Humidity % 70 % 80 %
Velocitat del vent: 0 km/h 0 km/h 0.3 km/h
Racha vent: 0 km/h - -
Vent:- - SE
Pressio: 0 hPa 34533.8 hPa -
Pluja: 116.84 mm    
Historical Graphs
 
 
Tabular Data for Marc 27, 2017
Time Temperature Dew Point Pressure Wind Wind Speed Wind Gust Humidity Rainfall Rate (Hourly) solar Conditions
-17.8 °C -17.8 °C 0 hPa Calm     Humidity % 0 mm SolarRadiationWatts/m^2 W/m2 Conditions
16:38 -10.2 °C -13 °C 34533.8 hPa SE 7.7 km/h 7.7 km/h 71 % 7.62 mm 619.0 W/m2 OVC
16:43 -10.1 °C -13 °C 34533.8 hPa Calm     71 % 7.62 mm 605.0 W/m2 CLR
16:48 -10 °C -12.7 °C 34533.8 hPa Calm     72 % 7.62 mm 594.0 W/m2 CLR
16:53 -9.8 °C -12.8 °C 34533.8 hPa SSE 6 km/h   70 % 0 mm 584.0 W/m2 CLR
20:21 -10.7 °C -12.7 °C 34601.5 hPa Calm     78 % 0 mm 0.0 W/m2 OVC
20:26 -10.7 °C -12.8 °C 34601.5 hPa Calm     78 % 0 mm 0.0 W/m2 OVC
20:31 -10.7 °C -12.9 °C 34611.7 hPa Calm     77 % 0 mm 0.0 W/m2 CLR
20:36 -10.7 °C -12.9 °C 34611.7 hPa Calm     77 % 0 mm 0.0 W/m2 CLR
20:41 -10.8 °C -12.9 °C 34625.2 hPa Calm     77 % 0 mm 0.0 W/m2 CLR
20:46 -10.8 °C -13 °C 34625.2 hPa Calm     77 % 0 mm 0.0 W/m2 CLR
20:51 -10.8 °C -12.9 °C 34625.2 hPa Calm     78 % 0 mm 0.0 W/m2 CLR
20:56 -10.8 °C -12.9 °C 34625.2 hPa Calm     78 % 0 mm 0.0 W/m2 CLR
21:01 -10.9 °C -12.9 °C 34625.2 hPa East 6 km/h   78 % 0 mm 0.0 W/m2 CLR
21:06 -10.9 °C -12.9 °C 34635.4 hPa Calm     79 % 0 mm 0.0 W/m2 CLR
21:11 -10.9 °C -12.9 °C 34625.2 hPa Calm     79 % 0 mm 0.0 W/m2 CLR
21:16 -11 °C -12.9 °C 34635.4 hPa Calm     79 % 0 mm 0.0 W/m2 CLR
21:21 -11 °C -12.9 °C 34635.4 hPa Calm     80 % 0 mm 0.0 W/m2 CLR
21:26 -11.1 °C -12.9 °C 34635.4 hPa Calm     80 % 0 mm 0.0 W/m2 CLR
21:29 -11.1 °C -12.9 °C 34635.4 hPa Calm     80 % 0 mm 0.0 W/m2 CLR
21:31 -11.1 °C -12.9 °C 34635.4 hPa Calm     80 % 0 mm 0.0 W/m2 CLR
21:33 -11.1 °C -12.9 °C 34635.4 hPa Calm     80 % 0 mm 0.0 W/m2 CLR
21:34 -11.2 °C -13 °C 34635.4 hPa Calm     80 % 0 mm 0.0 W/m2 CLR
21:35 -11.2 °C -12.9 °C 34635.4 hPa Calm     81 % 0 mm 0.0 W/m2 CLR
21:36 -11.2 °C -13 °C 34635.4 hPa Calm     80 % 0 mm 0.0 W/m2 CLR
21:39 -11.2 °C -13 °C 34645.6 hPa Calm     80 % 0 mm 0.0 W/m2 CLR
21:44 -11.2 °C -13.1 °C 34645.6 hPa Calm     80 % 0 mm 0.0 W/m2 CLR
21:49 -11.3 °C -13 °C 34645.6 hPa Calm     81 % 0 mm 0.0 W/m2 CLR
21:51 -11.3 °C -13.1 °C 34645.6 hPa Calm     81 % 0 mm 0.0 W/m2 CLR
21:53 -11.3 °C -13.1 °C 34645.6 hPa Calm     81 % 0 mm 0.0 W/m2 CLR
21:56 -11.3 °C -13.1 °C 34645.6 hPa Calm     81 % 0 mm 0.0 W/m2 CLR
21:58 -11.4 °C -13 °C 34645.6 hPa Calm     82 % 0 mm 0.0 W/m2 CLR
22:03 -11.5 °C -13.1 °C 34659.1 hPa Calm     82 % 0 mm 0.0 W/m2 CLR
22:08 -11.6 °C -13.1 °C 34659.1 hPa Calm     83 % 0 mm 0.0 W/m2 CLR
22:13 -11.6 °C -13.2 °C 34659.1 hPa Calm     83 % 0 mm 0.0 W/m2 CLR
22:18 -11.7 °C -13.2 °C 34669.3 hPa Calm     83 % 0 mm 0.0 W/m2 CLR
22:23 -11.7 °C -13.2 °C 34669.3 hPa Calm     84 % 0 mm 0.0 W/m2 CLR
22:28 -11.7 °C -13.2 °C 34669.3 hPa Calm     84 % 0 mm 0.0 W/m2 CLR
22:33 -11.7 °C -13.1 °C 34669.3 hPa Calm     84 % 0 mm 0.0 W/m2 CLR
22:38 -11.7 °C -13.2 °C 34669.3 hPa Calm     84 % 0 mm 0.0 W/m2 CLR
22:43 -11.7 °C -13.2 °C 34669.3 hPa Calm     84 % 0 mm 0.0 W/m2 CLR
22:48 -11.8 °C -13.2 °C 34669.3 hPa Calm     84 % 0 mm 0.0 W/m2 CLR
22:53 -11.8 °C -13.2 °C 34682.8 hPa Calm     85 % 0 mm 0.0 W/m2 CLR
22:54 -11.9 °C -13.2 °C 34682.8 hPa Calm     85 % 0 mm 0.0 W/m2 CLR
22:59 -12 °C -13.3 °C 34682.8 hPa Calm     85 % 0 mm 0.0 W/m2 CLR
23:04 -12.1 °C -13.3 °C 34682.8 hPa Calm     86 % 0 mm 0.0 W/m2 CLR
23:09 -12.2 °C -13.4 °C 34682.8 hPa Calm     86 % 0 mm 0.0 W/m2 CLR
23:14 -12.3 °C -13.4 °C 34682.8 hPa Calm     87 % 0 mm 0.0 W/m2 CLR
23:19 -12.4 °C -13.5 °C 34682.8 hPa Calm     87 % 0 mm 0.0 W/m2 CLR
23:24 -12.4 °C -13.5 °C 34682.8 hPa Calm     88 % 0 mm 0.0 W/m2 CLR
23:29 -12.4 °C -13.5 °C 34682.8 hPa Calm     88 % 0 mm 0.0 W/m2 CLR
23:34 -12.4 °C -13.5 °C 34682.8 hPa Calm     88 % 0 mm 0.0 W/m2 CLR
23:39 -12.6 °C -13.6 °C 34682.8 hPa Calm     88 % 0 mm 0.0 W/m2 CLR
23:44 -12.7 °C -13.8 °C 34682.8 hPa Calm     88 % 0 mm 0.0 W/m2 CLR
23:49 -12.9 °C -13.8 °C 34682.8 hPa Calm     89 % 0 mm 0.0 W/m2 CLR
23:54 -13 °C -13.9 °C 34682.8 hPa Calm     89 % 0 mm 0.0 W/m2 CLR
23:59 -13.1 °C -14.1 °C 34682.8 hPa Calm     89 % 0 mm 0.0 W/m2 CLR
Lo Temps de Massalio
Compliments of Weather Underground - 512 kb